Ashville, Pennsylvania
Current Conditions -  °F | °C
As of 11:53 PM on Monday 20 Oct 2014 (Local Time) from KAOO Reporting Station
Overcast Overcast  
Wind Chill: 47°   Ceiling: 4200
Heat Index: 49°   Visibility: 10mi
Dew Point: 43°   Wind: 5mph
Humidity: 80%   Direction: 200°SSW
Pressure: 29.9"   Gusts: NA
Location:  40.56°N, 78.55°W
Report Text: KAOO 210353Z AUTO 20004KT 10SM SCT033 BKN042 OVC070 09/06 A2990 RMK AO2 SLP127 T00940061
Loading
Personal Weather Stations






























Interactive Weather Map New forecast layout! Learn more

10-Day Weather Forecast

Advertisements
Track Severe Weather on mobile